Meteo Giornale » Osservazioni meteo Stati Uniti (USA) » Dodge City
ore: 15:52 - Osservazioni Meteo Dodge City
Lat. 37° 46' N Lon. 99° 58' W Alt. 790 metri s.l.m.
38 °C
Sereno
Temp. 24 Ore
22 °C
39 °C
Sud
20.3 Km/h
Dew point 14 °C
Umidità 24 %
Visibilità 13 Km
Il sole sorge alle ore 07:09
Il sole tramonta alle ore 20:10
| Data e Ora | Cielo e Fenomeni | T °C | DP °C | Um. % | Pres. hPa | Vis. km | Vento km/h | |
|---|---|---|---|---|---|---|---|---|
| Oggi h: 15:52 | Sereno | 38 | 14 | 24 | 1014 | 13 | S 20.3 | |
| Oggi h: 14:52 | Sereno | 38 | 14 | 24 | 1015 | 13 | S 16.7 | |
| Oggi h: 13:52 | Sereno | 36 | 15 | 28 | 1016 | 13 | SO 20.3 | |
| Oggi h: 12:52 | Sereno | 36 | 16 | 30 | 1016 | 13 | S 16.7 | |
| Oggi h: 11:52 | Sereno | 33 | 15 | 33 | 1016 | 13 | S 25.9 | |
| Oggi h: 10:52 | Sereno | 32 | 15 | 35 | 1016 | 11 | S 24 | |
| Oggi h: 09:52 | Sereno | 29 | 15 | 42 | 1015 | 11 | S/SE 22.2 | |
| Oggi h: 08:52 | Sereno | 26 | 14 | 47 | 1016 | 11 | SE 16.7 | |
| Oggi h: 07:52 | Foschia | 23 | 15 | 60 | 1016 | 10 | E/SE 13 | |
| Oggi h: 06:52 | Sereno | 22 | 16 | 68 | 1015 | 14 | E/SE 11.1 | |
| Oggi h: 05:52 | Sereno | 23 | 15 | 60 | 1016 | 14 | N 0 | |
| Oggi h: 04:52 | Coperto | 26 | 14 | 47 | 1016 | 14 | SO 7.4 | |
| Oggi h: 03:52 | Sereno | 24 | 14 | 53 | 1014 | 14 | S 11.1 | |
| Oggi h: 02:52 | Sereno | 24 | 14 | 53 | 1014 | 14 | S 13 | |
| Oggi h: 01:52 | Sereno | 27 | 14 | 44 | 1015 | 14 | O/NO 9.3 | |
| Oggi h: 01:28 | Poco Nuvoloso | 29 | 14 | 39 | 1015 | 14 | O/SO 13 | |
| Oggi h: 00:52 | Nuvoloso | 28 | 14 | 42 | 1014 | 13 | O 13 | |
| Ieri h: 23:52 | Sereno | 29 | 14 | 39 | 1014 | 14 | S 18.5 | |
| Ieri h: 22:52 | Sereno | 31 | 14 | 35 | 1012 | 14 | S 25.9 | |
| Ieri h: 21:52 | Foschia | 31 | 14 | 35 | 1012 | 10 | S 22.2 | |
| Ieri h: 20:52 | Foschia | 32 | 14 | 33 | 1011 | 8 | S 18.5 | |
| Ieri h: 19:52 | Foschia | 35 | 14 | 28 | 1011 | 10 | S 24 | |
| Ieri h: 18:52 | Poco Nuvoloso | 37 | 14 | 25 | 1010 | 13 | S 33.3 | |
| Ieri h: 17:52 | Sereno | 39 | 14 | 22 | 1010 | 13 | SO 25.9 | |
| Ieri h: 16:52 | Sereno | 39 | 15 | 24 | 1010 | 13 | SO 20.3 | |



